Time;durP1;ratioP1;P1;durP2;ratioP2;P2;SDS_P1;SDS_P2;PMS_P1;PMS_P2;Temp;Humidity;BMP_temperature;BMP_pressure;BME280_temperature;BME280_humidity;BME280_pressure;Samples;Min_cycle;Max_cycle;Signal;HPM_P1;HPM_P2
2022/12/30 00:02:18;;;;;;;;;;;6.10;99.90;;;;;;4954684;28;20348;-75
2022/12/30 00:04:45;;;;;;;;;;;6.10;99.90;;;;;;4954364;28;20018;-76
2022/12/30 00:07:12;;;;;;;;;;;6.10;99.90;;;;;;4951225;28;19934;-75
2022/12/30 00:09:39;;;;;;;;;;;6.10;99.90;;;;;;4954146;28;19980;-75
2022/12/30 00:34:02;;;;;;;;;;;5.90;99.90;;;;;;4955414;28;20018;-75
2022/12/30 00:36:29;;;;;;;;;;;5.90;99.90;;;;;;4954119;28;19938;-75
2022/12/30 00:38:56;;;;;;;;;;;5.90;99.90;;;;;;4954662;28;19935;-75
2022/12/30 00:44:07;;;;;;;;;;;5.90;99.90;;;;;;4953282;28;20050;-75
2022/12/30 00:46:36;;;;;;;;;;;5.80;99.90;;;;;;4955498;28;20409;-74
2022/12/30 00:57:15;;;;;;;;;;;5.70;99.90;;;;;;4952259;28;19941;-76
2022/12/30 00:59:42;;;;;;;;;;;5.70;99.90;;;;;;4955455;28;19933;-76
2022/12/30 01:02:10;;;;;;;;;;;5.70;99.90;;;;;;4954943;28;19940;-75
2022/12/30 01:04:37;;;;;;;;;;;5.70;99.90;;;;;;4953225;28;19937;-75
2022/12/30 01:07:03;;;;;;;;;;;5.70;99.90;;;;;;4952974;28;20452;-75
2022/12/30 01:09:30;;;;;;;;;;;5.70;99.90;;;;;;4956831;28;20057;-77
2022/12/30 01:12:09;;;;;;;;;;;5.70;99.90;;;;;;4958243;28;19948;-77
2022/12/30 01:14:36;;;;;;;;;;;5.70;99.90;;;;;;4955250;28;20372;-75
2022/12/30 01:17:03;;;;;;;;;;;5.70;99.90;;;;;;4954096;28;19930;-75
2022/12/30 01:19:31;;;;;;;;;;;5.70;99.90;;;;;;4953384;28;19945;-76
2022/12/30 01:21:58;;;;;;;;;;;5.70;99.90;;;;;;4954208;28;19926;-76
2022/12/30 01:24:25;;;;;;;;;;;5.70;99.90;;;;;;4952843;28;19997;-75
2022/12/30 01:26:52;;;;;;;;;;;5.70;99.90;;;;;;4950749;28;19941;-75
2022/12/30 01:29:21;;;;;;;;;;;5.70;99.90;;;;;;4954814;28;19948;-75
2022/12/30 01:31:47;;;;;;;;;;;5.60;99.90;;;;;;4953594;28;19950;-75
2022/12/30 01:34:14;;;;;;;;;;;5.60;99.90;;;;;;4954013;28;19926;-75
2022/12/30 01:36:42;;;;;;;;;;;5.60;99.90;;;;;;4952926;28;20020;-75
2022/12/30 01:39:09;;;;;;;;;;;5.50;99.90;;;;;;4952259;28;19926;-75
2022/12/30 01:41:35;;;;;;;;;;;5.50;99.90;;;;;;4954870;28;20029;-76
2022/12/30 01:44:02;;;;;;;;;;;5.50;99.90;;;;;;4954797;28;19960;-75
2022/12/30 01:46:30;;;;;;;;;;;5.50;99.90;;;;;;4953157;28;19927;-75
2022/12/30 01:48:58;;;;;;;;;;;5.50;99.90;;;;;;4954375;28;19926;-76
2022/12/30 01:51:29;;;;;;;;;;;5.40;99.90;;;;;;4952604;28;19934;-75
2022/12/30 01:53:58;;;;;;;;;;;5.40;99.90;;;;;;4952353;28;19934;-75
2022/12/30 01:56:28;;;;;;;;;;;5.40;99.90;;;;;;4954871;28;20426;-75
2022/12/30 01:58:56;;;;;;;;;;;5.40;99.90;;;;;;4953401;28;20020;-76
2022/12/30 02:01:23;;;;;;;;;;;5.40;99.90;;;;;;4953478;28;20401;-75
2022/12/30 02:03:56;;;;;;;;;;;5.40;99.90;;;;;;4953749;28;19930;-75
2022/12/30 02:06:25;;;;;;;;;;;5.40;99.90;;;;;;4954254;28;19926;-75
2022/12/30 02:08:51;;;;;;;;;;;5.40;99.90;;;;;;4955330;28;20004;-73
2022/12/30 02:11:19;;;;;;;;;;;5.30;99.90;;;;;;4953198;28;20021;-75
2022/12/30 02:13:46;;;;;;;;;;;5.40;99.90;;;;;;4950792;28;20382;-75
2022/12/30 02:16:28;;;;;;;;;;;5.30;99.90;;;;;;4954368;28;19956;-75
2022/12/30 02:19:01;;;;;;;;;;;5.30;99.90;;;;;;4957383;28;20036;-75
2022/12/30 02:21:36;;;;;;;;;;;5.30;99.90;;;;;;4956074;28;19934;-76
2022/12/30 02:24:18;;;;;;;;;;;5.30;99.90;;;;;;4957452;28;19930;-74
2022/12/30 02:26:59;;;;;;;;;;;5.30;99.90;;;;;;4956243;28;19936;-75
2022/12/30 02:29:38;;;;;;;;;;;5.20;99.90;;;;;;4957245;28;19941;-75
2022/12/30 02:32:09;;;;;;;;;;;5.20;99.90;;;;;;4955624;28;20353;-76
2022/12/30 02:34:40;;;;;;;;;;;5.20;99.90;;;;;;4954805;28;19934;-75
2022/12/30 02:37:11;;;;;;;;;;;5.20;99.90;;;;;;4954410;28;19934;-75
2022/12/30 02:39:42;;;;;;;;;;;5.10;99.90;;;;;;4955470;28;19934;-76
2022/12/30 02:44:57;;;;;;;;;;;5.10;99.90;;;;;;4956770;28;20424;-74
2022/12/30 02:47:27;;;;;;;;;;;5.10;99.90;;;;;;4954819;28;19937;-75
2022/12/30 02:52:37;;;;;;;;;;;5.10;99.90;;;;;;4976770;28;19953;-76
2022/12/30 02:55:04;;;;;;;;;;;5.20;99.90;;;;;;4955840;28;19940;-74
2022/12/30 02:57:31;;;;;;;;;;;5.10;99.90;;;;;;4954604;28;20419;-75
2022/12/30 03:05:46;;;;;;;;;;;5.00;99.90;;;;;;4952311;28;20566;-74
2022/12/30 03:08:17;;;;;;;;;;;5.00;99.90;;;;;;4956184;28;19928;-74
2022/12/30 03:13:32;;;;;;;;;;;4.90;99.90;;;;;;4956162;28;19944;-75
2022/12/30 03:16:02;;;;;;;;;;;4.90;99.90;;;;;;4957231;28;19936;-74
2022/12/30 03:18:30;;;;;;;;;;;4.90;99.90;;;;;;4956280;28;19988;-75
2022/12/30 03:20:57;;;;;;;;;;;4.90;99.90;;;;;;4960563;28;19926;-74
2022/12/30 03:28:56;;;;;;;;;;;4.90;99.90;;;;;;4953041;28;19991;-73
2022/12/30 03:31:22;;;;;;;;;;;4.90;99.90;;;;;;4955579;28;20304;-73
2022/12/30 03:33:50;;;;;;;;;;;4.80;99.90;;;;;;4953935;28;19926;-74
2022/12/30 03:36:18;;;;;;;;;;;4.80;99.90;;;;;;4954101;28;19932;-74
2022/12/30 03:38:49;;;;;;;;;;;4.80;99.90;;;;;;4953445;28;19937;-74
2022/12/30 03:41:15;;;;;;;;;;;4.80;99.90;;;;;;4955635;28;19935;-73
2022/12/30 03:43:43;;;;;;;;;;;4.80;99.90;;;;;;4952787;28;19930;-74
2022/12/30 03:46:09;;;;;;;;;;;4.80;99.90;;;;;;4954395;28;19934;-75
2022/12/30 03:48:36;;;;;;;;;;;4.80;99.90;;;;;;4954025;28;19934;-75
2022/12/30 03:51:04;;;;;;;;;;;4.70;99.90;;;;;;4956507;28;20050;-75
2022/12/30 03:53:31;;;;;;;;;;;4.70;99.90;;;;;;4952963;28;19937;-73
2022/12/30 03:55:58;;;;;;;;;;;4.70;99.90;;;;;;4955122;28;19933;-75
2022/12/30 03:58:24;;;;;;;;;;;4.70;99.90;;;;;;4955687;28;19930;-73
2022/12/30 04:00:51;;;;;;;;;;;4.70;99.90;;;;;;4955145;28;20026;-73
2022/12/30 04:03:18;;;;;;;;;;;4.70;99.90;;;;;;4952774;28;19930;-73
2022/12/30 04:05:45;;;;;;;;;;;4.70;99.90;;;;;;4954849;28;19935;-74
2022/12/30 04:08:13;;;;;;;;;;;4.70;99.90;;;;;;4952603;28;19970;-74
2022/12/30 04:10:40;;;;;;;;;;;4.70;99.90;;;;;;4955625;28;20317;-74
2022/12/30 04:13:06;;;;;;;;;;;4.70;99.90;;;;;;4952355;28;19932;-74
2022/12/30 04:15:33;;;;;;;;;;;4.70;99.90;;;;;;4954348;28;19931;-74
2022/12/30 04:18:00;;;;;;;;;;;4.80;99.90;;;;;;4953003;28;19934;-73
2022/12/30 04:20:26;;;;;;;;;;;4.70;99.90;;;;;;4954777;28;20009;-75
2022/12/30 04:22:56;;;;;;;;;;;4.70;99.90;;;;;;4955043;28;19944;-75
2022/12/30 04:25:24;;;;;;;;;;;4.70;99.90;;;;;;4955109;28;19930;-74
2022/12/30 04:27:51;;;;;;;;;;;4.80;99.90;;;;;;4953410;28;19934;-74
2022/12/30 04:30:17;;;;;;;;;;;4.80;99.90;;;;;;4954837;28;19934;-74
2022/12/30 04:32:44;;;;;;;;;;;4.80;99.90;;;;;;4953416;28;20357;-74
2022/12/30 04:35:11;;;;;;;;;;;4.80;99.90;;;;;;4954535;28;20017;-75
2022/12/30 04:37:37;;;;;;;;;;;4.80;99.90;;;;;;4954705;28;20028;-75
2022/12/30 04:40:05;;;;;;;;;;;4.80;99.90;;;;;;4955492;28;19934;-76
2022/12/30 04:42:32;;;;;;;;;;;4.80;99.90;;;;;;4955271;28;19944;-76
2022/12/30 04:45:01;;;;;;;;;;;4.80;99.90;;;;;;4953443;28;19937;-75
2022/12/30 04:47:29;;;;;;;;;;;4.80;99.90;;;;;;4954194;28;20285;-73
2022/12/30 04:49:56;;;;;;;;;;;4.80;99.90;;;;;;4953358;28;20006;-69
2022/12/30 04:52:23;;;;;;;;;;;4.80;99.90;;;;;;4954700;28;20021;-74
2022/12/30 04:54:49;;;;;;;;;;;4.80;99.90;;;;;;4953687;28;19934;-74
2022/12/30 04:57:16;;;;;;;;;;;4.80;99.90;;;;;;4953223;28;19930;-74
2022/12/30 04:59:43;;;;;;;;;;;4.80;99.90;;;;;;4952903;28;19932;-75
2022/12/30 05:02:11;;;;;;;;;;;4.80;99.90;;;;;;4952891;28;20009;-75
2022/12/30 05:04:38;;;;;;;;;;;4.80;99.90;;;;;;4954597;28;20622;-74
2022/12/30 05:07:05;;;;;;;;;;;4.80;99.90;;;;;;4955298;28;20021;-73
2022/12/30 05:09:31;;;;;;;;;;;4.80;99.90;;;;;;4954200;28;19934;-74
2022/12/30 05:11:59;;;;;;;;;;;4.80;99.90;;;;;;4954567;28;19932;-74
2022/12/30 05:14:25;;;;;;;;;;;4.90;99.90;;;;;;4954274;28;19941;-73
2022/12/30 05:16:52;;;;;;;;;;;4.90;99.90;;;;;;4956688;28;19926;-74
2022/12/30 05:19:20;;;;;;;;;;;4.90;99.90;;;;;;4955951;28;20025;-74
2022/12/30 05:21:47;;;;;;;;;;;4.90;99.90;;;;;;4953853;28;20001;-76
2022/12/30 05:26:58;;;;;;;;;;;5.00;99.90;;;;;;4955330;28;19980;-75
2022/12/30 05:29:24;;;;;;;;;;;5.10;99.90;;;;;;4954488;28;20042;-75
2022/12/30 05:31:51;;;;;;;;;;;5.00;99.90;;;;;;4957076;28;20498;-75
2022/12/30 05:34:19;;;;;;;;;;;5.00;99.90;;;;;;4952977;28;20025;-75
2022/12/30 05:36:46;;;;;;;;;;;5.10;99.90;;;;;;4956468;28;20412;-75
2022/12/30 05:39:13;;;;;;;;;;;5.00;99.90;;;;;;4954536;28;19934;-75
2022/12/30 05:41:40;;;;;;;;;;;5.00;99.90;;;;;;4954239;28;20408;-74
2022/12/30 05:44:06;;;;;;;;;;;5.00;99.90;;;;;;4953975;28;19992;-75
2022/12/30 05:46:33;;;;;;;;;;;5.00;99.90;;;;;;4954907;28;19938;-74
2022/12/30 05:49:01;;;;;;;;;;;5.10;99.90;;;;;;4953824;28;19944;-75
2022/12/30 05:51:29;;;;;;;;;;;5.10;99.90;;;;;;4958260;28;20582;-75
2022/12/30 05:53:55;;;;;;;;;;;5.20;99.90;;;;;;4960993;28;19934;-77
2022/12/30 05:56:22;;;;;;;;;;;5.20;99.90;;;;;;4959482;28;19941;-75
2022/12/30 05:58:49;;;;;;;;;;;5.10;99.90;;;;;;4957060;28;19934;-75
2022/12/30 06:01:15;;;;;;;;;;;5.10;99.90;;;;;;4957075;28;19969;-75
2022/12/30 06:03:42;;;;;;;;;;;5.10;99.90;;;;;;4960154;28;20013;-76
2022/12/30 06:06:10;;;;;;;;;;;5.20;99.90;;;;;;4957537;28;20444;-75
2022/12/30 06:08:38;;;;;;;;;;;5.20;99.90;;;;;;4957488;28;20600;-75
2022/12/30 06:11:05;;;;;;;;;;;5.10;99.90;;;;;;4960661;28;19926;-75
2022/12/30 06:13:32;;;;;;;;;;;5.20;99.90;;;;;;4958523;28;20072;-75
2022/12/30 06:15:59;;;;;;;;;;;5.20;99.90;;;;;;4960954;28;19949;-75
2022/12/30 06:18:26;;;;;;;;;;;5.30;99.90;;;;;;4971273;28;20025;-76
2022/12/30 06:20:53;;;;;;;;;;;5.30;99.90;;;;;;4968973;28;20415;-77
2022/12/30 06:23:19;;;;;;;;;;;5.40;99.90;;;;;;4969566;28;19932;-77
2022/12/30 06:25:50;;;;;;;;;;;5.40;99.90;;;;;;4969654;28;20021;-77
2022/12/30 06:28:17;;;;;;;;;;;5.40;99.90;;;;;;4971179;28;19926;-76
2022/12/30 06:30:44;;;;;;;;;;;5.50;99.90;;;;;;4970326;28;19926;-75
2022/12/30 06:33:10;;;;;;;;;;;5.50;99.90;;;;;;4957680;28;19936;-75
2022/12/30 06:35:37;;;;;;;;;;;5.50;99.90;;;;;;4956890;28;20344;-75
2022/12/30 06:38:04;;;;;;;;;;;5.50;99.90;;;;;;4956325;28;20330;-75
2022/12/30 06:40:30;;;;;;;;;;;5.60;99.90;;;;;;4957049;28;20064;-75
2022/12/30 06:42:58;;;;;;;;;;;5.60;99.90;;;;;;4956215;28;20432;-75
2022/12/30 06:45:25;;;;;;;;;;;5.70;99.90;;;;;;4955418;28;19930;-75
2022/12/30 06:47:52;;;;;;;;;;;5.70;99.90;;;;;;4956099;28;19934;-75
2022/12/30 06:50:19;;;;;;;;;;;5.70;99.90;;;;;;4957007;28;20548;-73
2022/12/30 06:52:45;;;;;;;;;;;5.70;99.90;;;;;;4955742;28;19942;-74
2022/12/30 06:55:12;;;;;;;;;;;5.70;99.90;;;;;;4957336;28;19949;-74
2022/12/30 06:57:39;;;;;;;;;;;5.80;99.90;;;;;;4958709;28;19930;-75
2022/12/30 07:00:08;;;;;;;;;;;5.80;99.90;;;;;;4955774;28;19971;-76
2022/12/30 07:02:34;;;;;;;;;;;5.80;99.90;;;;;;4958869;28;19977;-74
2022/12/30 07:05:01;;;;;;;;;;;5.80;99.90;;;;;;4957142;28;19930;-75
2022/12/30 07:07:28;;;;;;;;;;;5.90;99.90;;;;;;4957557;28;20052;-75
2022/12/30 07:09:54;;;;;;;;;;;5.90;99.90;;;;;;4958066;28;19937;-74
2022/12/30 07:12:21;;;;;;;;;;;5.90;99.90;;;;;;4956806;28;19926;-75
2022/12/30 07:14:48;;;;;;;;;;;6.00;99.90;;;;;;4955748;28;19936;-75
2022/12/30 07:17:16;;;;;;;;;;;6.10;99.90;;;;;;4954031;28;20296;-75
2022/12/30 07:19:46;;;;;;;;;;;6.10;99.90;;;;;;4956828;28;19929;-75
2022/12/30 07:22:13;;;;;;;;;;;6.20;99.90;;;;;;4958039;28;19938;-75
2022/12/30 07:24:39;;;;;;;;;;;6.20;99.90;;;;;;4954127;28;19950;-74
2022/12/30 07:27:06;;;;;;;;;;;6.30;99.90;;;;;;4958073;28;19934;-75
2022/12/30 07:29:33;;;;;;;;;;;6.30;99.90;;;;;;4953627;28;20409;-74
2022/12/30 07:31:59;;;;;;;;;;;6.20;99.90;;;;;;4954986;28;21151;-75
2022/12/30 07:34:27;;;;;;;;;;;6.30;99.90;;;;;;4955568;28;19938;-75
2022/12/30 07:36:54;;;;;;;;;;;6.30;99.90;;;;;;4952057;28;19938;-75
2022/12/30 07:39:21;;;;;;;;;;;6.30;99.90;;;;;;4952801;28;19933;-75
2022/12/30 07:41:47;;;;;;;;;;;6.30;99.90;;;;;;4955925;28;19934;-76
2022/12/30 07:44:14;;;;;;;;;;;6.40;99.90;;;;;;4954762;28;20747;-75
2022/12/30 07:46:41;;;;;;;;;;;6.40;99.90;;;;;;4957557;28;19972;-76
2022/12/30 07:49:08;;;;;;;;;;;6.30;99.90;;;;;;4956482;28;20052;-77
2022/12/30 07:51:36;;;;;;;;;;;6.40;99.90;;;;;;4953552;28;19934;-76
2022/12/30 07:54:02;;;;;;;;;;;6.50;99.90;;;;;;4954284;28;19934;-77
2022/12/30 07:56:29;;;;;;;;;;;6.40;99.90;;;;;;4954119;28;19934;-76
2022/12/30 07:58:56;;;;;;;;;;;6.40;99.90;;;;;;4953753;28;19946;-76
2022/12/30 08:01:23;;;;;;;;;;;6.40;99.90;;;;;;4953342;28;20373;-75
2022/12/30 08:03:49;;;;;;;;;;;6.50;99.90;;;;;;4953426;28;20021;-75
2022/12/30 08:06:17;;;;;;;;;;;6.50;99.90;;;;;;4956565;28;19930;-75
2022/12/30 08:08:46;;;;;;;;;;;6.50;99.90;;;;;;4956249;28;20037;-76
2022/12/30 08:11:13;;;;;;;;;;;6.50;99.90;;;;;;4955968;28;19930;-73
2022/12/30 08:13:41;;;;;;;;;;;6.50;99.90;;;;;;4952278;28;19944;-75
2022/12/30 08:16:09;;;;;;;;;;;6.60;99.90;;;;;;4954751;28;20359;-76
2022/12/30 08:18:36;;;;;;;;;;;6.60;99.90;;;;;;4953625;28;19934;-75
2022/12/30 08:21:03;;;;;;;;;;;6.70;99.90;;;;;;4954022;28;19981;-76
2022/12/30 08:23:30;;;;;;;;;;;6.70;99.90;;;;;;4954174;28;19934;-75
2022/12/30 08:26:03;;;;;;;;;;;6.70;99.90;;;;;;4957311;28;19934;-75
2022/12/30 08:28:30;;;;;;;;;;;6.70;99.90;;;;;;4952033;28;20540;-74
2022/12/30 08:30:56;;;;;;;;;;;6.80;99.90;;;;;;4953520;28;19936;-75
2022/12/30 08:33:23;;;;;;;;;;;6.80;99.90;;;;;;4953580;28;19940;-75
2022/12/30 08:35:50;;;;;;;;;;;6.80;99.90;;;;;;4954436;28;20398;-75
2022/12/30 08:38:16;;;;;;;;;;;6.90;99.90;;;;;;4952599;28;19999;-75
2022/12/30 08:40:43;;;;;;;;;;;6.90;99.90;;;;;;4954907;28;19926;-76
2022/12/30 08:43:12;;;;;;;;;;;6.90;99.90;;;;;;4955349;28;20041;-74
2022/12/30 08:45:38;;;;;;;;;;;6.90;99.90;;;;;;4953036;28;20628;-74
2022/12/30 08:48:05;;;;;;;;;;;7.00;99.90;;;;;;4953856;28;20021;-76
2022/12/30 08:50:32;;;;;;;;;;;7.00;99.90;;;;;;4952020;28;19930;-75
2022/12/30 08:52:59;;;;;;;;;;;7.00;99.90;;;;;;4952063;28;20020;-73
2022/12/30 08:55:27;;;;;;;;;;;7.00;99.90;;;;;;4952767;28;19934;-74
2022/12/30 08:57:55;;;;;;;;;;;7.10;99.90;;;;;;4951603;28;19941;-78
2022/12/30 09:00:24;;;;;;;;;;;7.10;99.90;;;;;;4957218;28;19993;-77
2022/12/30 09:02:50;;;;;;;;;;;7.20;99.90;;;;;;4957365;28;20083;-78
2022/12/30 09:05:17;;;;;;;;;;;7.30;99.90;;;;;;4958275;28;20021;-77
2022/12/30 09:07:44;;;;;;;;;;;7.30;99.90;;;;;;4950933;28;20057;-76
2022/12/30 09:10:12;;;;;;;;;;;7.40;99.90;;;;;;4954284;28;19934;-76
2022/12/30 09:12:39;;;;;;;;;;;7.30;99.90;;;;;;4951183;28;19961;-77
2022/12/30 09:15:06;;;;;;;;;;;7.40;99.90;;;;;;4949499;28;20017;-76
2022/12/30 09:17:36;;;;;;;;;;;7.50;99.90;;;;;;4953953;28;19945;-76
2022/12/30 09:20:04;;;;;;;;;;;7.50;99.90;;;;;;4946831;28;19926;-76
2022/12/30 09:22:31;;;;;;;;;;;7.60;99.90;;;;;;4952979;28;20519;-74
2022/12/30 09:24:57;;;;;;;;;;;7.70;99.90;;;;;;4953906;28;22524;-75
2022/12/30 09:27:24;;;;;;;;;;;7.70;99.90;;;;;;4950830;28;20309;-75
2022/12/30 09:29:51;;;;;;;;;;;7.70;99.90;;;;;;4954994;28;19934;-75
2022/12/30 09:32:18;;;;;;;;;;;7.70;99.90;;;;;;4952229;28;20019;-76
2022/12/30 09:34:47;;;;;;;;;;;7.80;99.90;;;;;;4951159;28;20321;-76
2022/12/30 09:37:14;;;;;;;;;;;7.80;99.90;;;;;;4952390;28;19941;-77
2022/12/30 09:39:41;;;;;;;;;;;7.80;99.90;;;;;;4957010;28;19964;-76
2022/12/30 09:45:08;;;;;;;;;;;7.80;99.90;;;;;;4952891;28;20186;-75
2022/12/30 09:47:37;;;;;;;;;;;7.80;99.90;;;;;;4955027;28;20022;-76
2022/12/30 09:50:06;;;;;;;;;;;7.90;99.90;;;;;;4956042;28;19927;-75
2022/12/30 09:52:37;;;;;;;;;;;7.90;99.90;;;;;;4960989;28;20076;-77
2022/12/30 09:55:06;;;;;;;;;;;8.00;99.90;;;;;;4956813;28;19934;-77
2022/12/30 09:57:33;;;;;;;;;;;8.00;99.90;;;;;;4956268;28;20249;-75
2022/12/30 10:00:02;;;;;;;;;;;8.00;99.90;;;;;;4957195;28;20025;-75
2022/12/30 10:02:30;;;;;;;;;;;8.00;99.90;;;;;;4955254;28;19937;-76
2022/12/30 10:04:57;;;;;;;;;;;8.10;99.90;;;;;;4954144;28;22178;-76
2022/12/30 10:07:30;;;;;;;;;;;8.00;99.90;;;;;;4958187;28;19934;-77
2022/12/30 10:09:59;;;;;;;;;;;8.10;99.90;;;;;;4955303;28;20033;-76
2022/12/30 10:12:35;;;;;;;;;;;8.20;99.90;;;;;;4953310;28;19945;-77
2022/12/30 10:15:06;;;;;;;;;;;8.20;99.90;;;;;;4954169;28;19927;-76
2022/12/30 10:17:47;;;;;;;;;;;8.30;99.90;;;;;;4953221;28;19950;-75
2022/12/30 10:20:18;;;;;;;;;;;8.20;99.90;;;;;;4952450;28;19934;-76
2022/12/30 10:22:49;;;;;;;;;;;8.30;99.90;;;;;;4957019;28;19934;-76
2022/12/30 10:25:23;;;;;;;;;;;8.30;99.90;;;;;;4958380;28;19933;-76
2022/12/30 10:27:50;;;;;;;;;;;8.40;99.90;;;;;;4949515;28;20028;-78
2022/12/30 10:30:18;;;;;;;;;;;8.40;99.90;;;;;;4952413;28;20070;-76
2022/12/30 10:32:47;;;;;;;;;;;8.40;99.90;;;;;;4951931;28;20604;-77
2022/12/30 10:35:16;;;;;;;;;;;8.40;99.90;;;;;;4954381;28;20013;-77
2022/12/30 10:37:43;;;;;;;;;;;8.50;99.90;;;;;;4954100;28;19944;-77
2022/12/30 10:40:18;;;;;;;;;;;8.60;99.90;;;;;;4954170;28;19964;-77
2022/12/30 10:42:57;;;;;;;;;;;8.60;99.90;;;;;;4951184;28;20429;-76
2022/12/30 10:45:34;;;;;;;;;;;8.70;99.90;;;;;;4954946;28;20369;-75
2022/12/30 10:48:06;;;;;;;;;;;8.70;99.90;;;;;;4954287;28;19930;-76
2022/12/30 10:50:35;;;;;;;;;;;8.80;99.90;;;;;;4952577;28;20842;-76
2022/12/30 10:53:03;;;;;;;;;;;8.80;99.90;;;;;;4952260;28;20041;-76
2022/12/30 10:55:33;;;;;;;;;;;8.90;99.90;;;;;;4954786;28;19941;-75
2022/12/30 10:58:02;;;;;;;;;;;9.00;99.90;;;;;;4952922;28;19927;-76
2022/12/30 11:00:29;;;;;;;;;;;9.00;99.90;;;;;;4954858;28;20397;-75
2022/12/30 11:02:57;;;;;;;;;;;9.10;99.90;;;;;;4954321;28;19937;-76
2022/12/30 11:05:28;;;;;;;;;;;9.10;99.90;;;;;;4953589;28;19930;-76
2022/12/30 11:07:55;;;;;;;;;;;9.10;99.90;;;;;;4953176;28;19962;-75
2022/12/30 11:10:22;;;;;;;;;;;9.10;99.90;;;;;;4956378;28;19930;-76
2022/12/30 11:15:49;;;;;;;;;;;9.00;99.90;;;;;;4955676;28;19936;-76
2022/12/30 11:18:16;;;;;;;;;;;9.00;99.90;;;;;;4953179;28;19949;-76
2022/12/30 11:20:43;;;;;;;;;;;9.00;99.90;;;;;;4954601;28;19936;-76
2022/12/30 11:23:23;;;;;;;;;;;9.00;99.90;;;;;;4953674;28;20027;-75
2022/12/30 11:25:50;;;;;;;;;;;9.00;99.90;;;;;;4948512;28;19934;-76
2022/12/30 11:28:19;;;;;;;;;;;8.90;99.90;;;;;;4947109;28;19964;-75
2022/12/30 11:30:55;;;;;;;;;;;8.80;99.90;;;;;;4954933;28;19933;-75
2022/12/30 11:33:24;;;;;;;;;;;8.80;99.90;;;;;;4945575;28;20693;-76
2022/12/30 11:35:51;;;;;;;;;;;8.70;99.90;;;;;;4950709;28;19945;-75
2022/12/30 11:38:32;;;;;;;;;;;8.70;99.90;;;;;;4948587;28;19941;-76
2022/12/30 11:41:13;;;;;;;;;;;8.70;99.90;;;;;;4948436;28;19965;-75
2022/12/30 11:43:41;;;;;;;;;;;8.60;99.90;;;;;;4950433;28;20381;-76
2022/12/30 11:46:10;;;;;;;;;;;8.60;99.90;;;;;;4953300;28;19934;-76
2022/12/30 11:48:38;;;;;;;;;;;8.60;99.90;;;;;;4952244;28;19930;-75
2022/12/30 11:51:14;;;;;;;;;;;8.50;99.90;;;;;;4953700;28;19938;-77
2022/12/30 11:53:41;;;;;;;;;;;8.40;99.90;;;;;;4954019;28;20031;-76
2022/12/30 11:56:07;;;;;;;;;;;8.40;99.90;;;;;;4950903;28;20423;-75
2022/12/30 11:58:35;;;;;;;;;;;8.40;99.90;;;;;;4949067;28;19931;-75
2022/12/30 12:01:05;;;;;;;;;;;8.40;99.90;;;;;;4949307;28;20463;-76
2022/12/30 12:03:32;;;;;;;;;;;8.30;99.90;;;;;;4947521;28;19935;-75
2022/12/30 12:06:07;;;;;;;;;;;8.30;99.90;;;;;;4950584;28;19934;-77
2022/12/30 12:08:37;;;;;;;;;;;8.30;99.90;;;;;;4949974;28;19940;-76
2022/12/30 12:11:05;;;;;;;;;;;8.30;99.90;;;;;;4950530;28;19930;-74
2022/12/30 12:13:34;;;;;;;;;;;8.30;99.90;;;;;;4950978;28;19966;-75
2022/12/30 12:16:04;;;;;;;;;;;8.40;99.90;;;;;;4949888;28;19934;-76
2022/12/30 12:18:34;;;;;;;;;;;8.40;99.90;;;;;;4948562;28;19935;-74
2022/12/30 12:21:06;;;;;;;;;;;8.50;99.90;;;;;;4953373;28;19933;-73
2022/12/30 12:23:46;;;;;;;;;;;8.50;99.90;;;;;;4948715;28;20057;-75
2022/12/30 12:26:16;;;;;;;;;;;8.60;99.90;;;;;;4955127;28;19937;-74
2022/12/30 12:28:43;;;;;;;;;;;8.70;99.90;;;;;;4947734;28;19965;-73
2022/12/30 12:31:21;;;;;;;;;;;8.70;99.90;;;;;;4950354;28;19930;-74
2022/12/30 12:33:49;;;;;;;;;;;8.80;99.90;;;;;;4952824;28;19988;-76
2022/12/30 12:36:22;;;;;;;;;;;8.80;99.90;;;;;;4953395;28;21360;-74
2022/12/30 12:38:53;;;;;;;;;;;8.80;99.90;;;;;;4952660;28;19930;-76
2022/12/30 12:41:30;;;;;;;;;;;8.80;99.90;;;;;;4953018;28;19941;-73
2022/12/30 12:44:05;;;;;;;;;;;8.80;99.90;;;;;;4950367;28;19936;-75
2022/12/30 12:46:47;;;;;;;;;;;8.80;99.90;;;;;;4953237;28;19934;-76
2022/12/30 12:49:21;;;;;;;;;;;8.70;99.90;;;;;;4948432;28;19934;-75
2022/12/30 12:52:00;;;;;;;;;;;8.70;99.90;;;;;;4950926;28;19945;-74
2022/12/30 12:54:37;;;;;;;;;;;8.60;99.90;;;;;;4952828;28;19936;-76
2022/12/30 12:57:08;;;;;;;;;;;8.60;99.90;;;;;;4952536;28;20296;-74
2022/12/30 12:59:47;;;;;;;;;;;8.60;99.90;;;;;;4951191;28;19930;-75
2022/12/30 13:02:29;;;;;;;;;;;8.60;99.90;;;;;;4953382;28;19980;-75
2022/12/30 13:05:00;;;;;;;;;;;8.60;99.90;;;;;;4953019;28;20024;-75
2022/12/30 13:07:38;;;;;;;;;;;8.60;99.90;;;;;;4952620;28;19930;-77
2022/12/30 13:10:18;;;;;;;;;;;8.70;99.90;;;;;;4951332;28;19936;-77
2022/12/30 13:12:48;;;;;;;;;;;8.70;99.90;;;;;;4951097;28;19941;-78
2022/12/30 13:15:21;;;;;;;;;;;8.70;99.90;;;;;;4949909;28;20338;-73
2022/12/30 13:17:51;;;;;;;;;;;8.70;99.90;;;;;;4950664;28;19930;-71
2022/12/30 13:20:19;;;;;;;;;;;8.70;99.90;;;;;;4948029;28;19941;-72
2022/12/30 13:22:46;;;;;;;;;;;8.70;99.90;;;;;;4951947;28;20300;-72
2022/12/30 13:25:15;;;;;;;;;;;8.80;99.90;;;;;;4947018;28;19938;-70
2022/12/30 13:27:44;;;;;;;;;;;8.80;99.90;;;;;;4952124;28;19988;-75
2022/12/30 13:30:14;;;;;;;;;;;8.90;99.90;;;;;;4950900;28;20036;-75
2022/12/30 13:32:48;;;;;;;;;;;9.00;99.90;;;;;;4954629;28;20022;-76
2022/12/30 13:35:27;;;;;;;;;;;9.10;99.90;;;;;;4950453;28;19945;-76
2022/12/30 13:37:57;;;;;;;;;;;9.10;99.90;;;;;;4952249;28;20022;-77
2022/12/30 13:40:30;;;;;;;;;;;9.20;99.90;;;;;;4951516;28;19934;-75
2022/12/30 13:43:09;;;;;;;;;;;9.30;99.90;;;;;;4950545;28;19938;-74
2022/12/30 13:45:37;;;;;;;;;;;9.30;99.90;;;;;;4952582;28;19930;-77
2022/12/30 13:48:05;;;;;;;;;;;9.30;99.90;;;;;;4948775;28;19926;-77
2022/12/30 13:50:34;;;;;;;;;;;9.50;99.90;;;;;;4951469;28;20401;-75
2022/12/30 13:53:03;;;;;;;;;;;9.70;99.90;;;;;;4950523;28;19934;-76
2022/12/30 13:55:31;;;;;;;;;;;9.60;99.90;;;;;;4949785;28;19934;-75
2022/12/30 13:58:00;;;;;;;;;;;9.60;99.90;;;;;;4949170;28;19978;-71
2022/12/30 14:00:28;;;;;;;;;;;9.60;99.90;;;;;;4951518;28;19937;-74
2022/12/30 14:03:00;;;;;;;;;;;9.60;99.90;;;;;;4949853;28;19934;-74
2022/12/30 14:05:31;;;;;;;;;;;9.60;99.90;;;;;;5056378;22;19928;-74
2022/12/30 14:08:00;;;;;;;;;;;9.60;99.90;;;;;;5052502;28;19971;-76
2022/12/30 14:10:51;;;;;;;;;;;9.60;99.90;;;;;;5055091;28;19928;-77
2022/12/30 14:13:33;;;;;;;;;;;9.60;99.90;;;;;;5057092;28;19932;-76
2022/12/30 14:16:02;;;;;;;;;;;9.50;99.90;;;;;;5055688;28;19928;-76
2022/12/30 14:18:36;;;;;;;;;;;9.60;99.90;;;;;;5055993;28;19928;-75
2022/12/30 14:21:04;;;;;;;;;;;9.60;99.90;;;;;;5057006;28;19935;-75
2022/12/30 14:23:52;;;;;;;;;;;9.70;99.90;;;;;;5058266;28;20360;-75
2022/12/30 14:26:38;;;;;;;;;;;9.70;99.90;;;;;;5054667;28;19928;-76
2022/12/30 14:29:19;;;;;;;;;;;9.70;99.90;;;;;;5056485;28;20010;-77
2022/12/30 14:31:47;;;;;;;;;;;9.70;99.90;;;;;;5055387;28;20516;-76
2022/12/30 14:34:21;;;;;;;;;;;9.70;99.90;;;;;;5052555;28;19929;-74
2022/12/30 14:36:56;;;;;;;;;;;9.70;99.90;;;;;;5054037;28;19971;-76
2022/12/30 14:39:22;;;;;;;;;;;9.70;99.90;;;;;;5053748;28;19940;-74
2022/12/30 14:41:49;;;;;;;;;;;9.80;99.90;;;;;;5054442;28;20059;-75
2022/12/30 14:44:22;;;;;;;;;;;9.80;99.90;;;;;;5049255;28;20003;-75
2022/12/30 14:46:53;;;;;;;;;;;9.80;99.90;;;;;;5048917;28;19933;-76
2022/12/30 14:49:21;;;;;;;;;;;9.90;99.90;;;;;;5053857;28;19932;-75
2022/12/30 14:51:49;;;;;;;;;;;9.90;99.90;;;;;;5044159;28;19955;-75
2022/12/30 14:54:17;;;;;;;;;;;10.00;99.90;;;;;;5050477;28;20445;-74
2022/12/30 14:56:54;;;;;;;;;;;10.00;99.90;;;;;;5049374;28;20019;-75
2022/12/30 14:59:23;;;;;;;;;;;10.00;99.90;;;;;;5053541;28;19928;-73
2022/12/30 15:02:01;;;;;;;;;;;10.20;99.90;;;;;;5049119;28;20054;-76
2022/12/30 15:04:28;;;;;;;;;;;10.10;99.90;;;;;;5055771;28;20379;-72
2022/12/30 15:06:54;;;;;;;;;;;10.20;99.90;;;;;;5054436;28;20281;-72
2022/12/30 15:09:26;;;;;;;;;;;10.30;99.90;;;;;;5054160;28;19932;-73
2022/12/30 15:11:54;;;;;;;;;;;10.40;99.90;;;;;;5050338;28;19932;-73
2022/12/30 15:14:23;;;;;;;;;;;10.40;99.90;;;;;;5052169;28;19931;-74
2022/12/30 15:17:04;;;;;;;;;;;10.50;99.90;;;;;;5053319;28;19938;-76
2022/12/30 15:19:31;;;;;;;;;;;10.60;99.90;;;;;;5057367;28;19937;-74
2022/12/30 15:21:58;;;;;;;;;;;10.70;99.90;;;;;;5053317;28;19936;-74
2022/12/30 15:24:25;;;;;;;;;;;10.80;99.90;;;;;;5051055;28;20012;-75
2022/12/30 15:26:53;;;;;;;;;;;10.90;99.90;;;;;;5053332;28;20007;-74
2022/12/30 15:29:21;;;;;;;;;;;10.90;99.90;;;;;;5053573;28;19947;-77
2022/12/30 15:31:50;;;;;;;;;;;11.00;99.90;;;;;;5054401;28;20412;-73
2022/12/30 15:34:19;;;;;;;;;;;11.10;99.90;;;;;;5054219;28;20015;-73
2022/12/30 15:36:45;;;;;;;;;;;11.20;99.90;;;;;;5056877;28;19932;-73
2022/12/30 15:39:14;;;;;;;;;;;11.30;99.90;;;;;;5054482;28;20537;-73
2022/12/30 15:41:41;;;;;;;;;;;11.40;99.90;;;;;;5056420;28;19933;-75